Main page
METAR-TAF:

METAR-TAF

Airports :

Varna Airport

Varna, Bulgaria

latitude: 43-12N, longitude: 027-55E, elevation: 41 m

Current weather observation

The report was made 21 minutes ago, at 09:00 UTC
Wind 14 kt from the East/Southeast, varying between East and Southeast
Temperature 28°C
Humidity 42%
Pressure 1017 hPa
Visibility 10 km or more
Few clouds at a height of 2000 ft

METAR: LBWN 110900Z 11014KT 080V140 9999 FEW020 28/14 Q1017 NOSIG

Time: 12:21 (09:21 UTC)

Forecast

The report was made 4 hours and 21 minutes ago, at 05:00 UTC
Forecast valid from 11 at 06 UTC to 12 at 06 UTC
Wind 4 kt from variable directions
Visibility 10 km or more
no clouds below 1500 m and no cumulonimbus
Becoming
from 11 at 06 UTC to 11 at 08 UTC
Wind 14 kt from the East/Southeast
Becoming
from 11 at 18 UTC to 11 at 20 UTC
Wind 4 kt from variable directions

TAF: LBWN 110500Z 1106/1206 VRB04KT CAVOK BECMG 1106/1108 12014KT BECMG 1118/1120 VRB04KT

Weather observations and forecasts of more than 4000 airports (METAR and TAF reports).

The available stations are represented by yellow and red dots on the map.

Hover mouse over dot to see the name of the station.

Then click to see weather observations and forecasts.

To change the map : click on the green buttons with a black cross to zoom in, on the green button with a dash to zoom out, or on the green arrows for adjacent maps.


METAR-TAF: